Time;durP1;ratioP1;P1;durP2;ratioP2;P2;SDS_P1;SDS_P2;PMS_P1;PMS_P2;Temp;Humidity;BMP_temperature;BMP_pressure;BME280_temperature;BME280_humidity;BME280_pressure;Samples;Min_cycle;Max_cycle;Signal;HPM_P1;HPM_P2
2021/05/26 00:02:23;;;;;;;8.52;5.25;;;;;;;;;;4917224;29;20486;-59
2021/05/26 00:04:48;;;;;;;6.75;5.22;;;;;;;;;;4915705;29;22077;-58
2021/05/26 00:07:14;;;;;;;8.80;5.95;;;;;;;;;;4919587;29;20039;-59
2021/05/26 00:09:40;;;;;;;10.13;5.30;;;;;;;;;;4918512;29;20158;-59
2021/05/26 00:12:06;;;;;;;6.75;4.97;;;;;;;;;;4919752;29;20039;-60
2021/05/26 00:14:32;;;;;;;8.75;5.82;;;;;;;;;;4916879;29;20040;-60
2021/05/26 00:16:58;;;;;;;8.07;5.10;;;;;;;;;;4919636;29;22497;-59
2021/05/26 00:19:29;;;;;;;9.23;5.15;;;;;;;;;;4918878;29;20052;-57
2021/05/26 00:21:58;;;;;;;7.10;5.18;;;;;;;;;;4918351;29;20048;-59
2021/05/26 00:24:24;;;;;;;11.07;5.60;;;;;;;;;;4917885;29;20379;-60
2021/05/26 00:26:54;;;;;;;7.90;5.30;;;;;;;;;;4918337;29;20048;-58
2021/05/26 00:29:20;;;;;;;9.20;5.68;;;;;;;;;;4916525;29;20071;-59
2021/05/26 00:31:49;;;;;;;8.23;5.30;;;;;;;;;;4918583;29;20131;-58
2021/05/26 00:34:14;;;;;;;8.20;5.10;;;;;;;;;;4919472;29;20090;-60
2021/05/26 00:36:40;;;;;;;8.68;5.00;;;;;;;;;;4918379;29;20400;-60
2021/05/26 00:39:06;;;;;;;7.03;5.20;;;;;;;;;;4917797;29;20402;-60
2021/05/26 00:41:32;;;;;;;7.45;4.68;;;;;;;;;;4916750;29;22206;-61
2021/05/26 00:43:58;;;;;;;8.13;4.55;;;;;;;;;;4916687;29;20040;-60
2021/05/26 00:46:24;;;;;;;7.05;4.68;;;;;;;;;;4917404;29;20075;-60
2021/05/26 00:48:50;;;;;;;6.53;4.38;;;;;;;;;;4917996;29;20035;-60
2021/05/26 00:51:15;;;;;;;8.75;4.88;;;;;;;;;;4919744;29;20090;-63
2021/05/26 00:53:41;;;;;;;7.70;5.30;;;;;;;;;;4916517;29;20086;-63
2021/05/26 00:56:08;;;;;;;7.72;4.45;;;;;;;;;;4918768;29;20048;-60
2021/05/26 00:58:34;;;;;;;6.55;4.35;;;;;;;;;;4915177;29;20070;-61
2021/05/26 01:01:00;;;;;;;7.10;5.13;;;;;;;;;;4914477;29;20051;-63
2021/05/26 01:03:27;;;;;;;6.53;4.40;;;;;;;;;;4916271;29;20048;-62
2021/05/26 01:05:53;;;;;;;7.13;4.50;;;;;;;;;;4916717;29;20573;-61
2021/05/26 01:08:19;;;;;;;7.20;4.55;;;;;;;;;;4916109;29;20126;-63
2021/05/26 01:10:45;;;;;;;6.68;4.38;;;;;;;;;;4916359;29;20534;-59
2021/05/26 01:13:11;;;;;;;9.35;4.68;;;;;;;;;;4916005;29;20553;-61
2021/05/26 01:15:37;;;;;;;6.95;4.53;;;;;;;;;;4914838;29;20523;-61
2021/05/26 01:18:29;;;;;;;7.13;4.35;;;;;;;;;;4915946;29;20078;-59
2021/05/26 01:20:58;;;;;;;8.07;4.40;;;;;;;;;;4912713;29;20422;-61
2021/05/26 01:23:24;;;;;;;6.20;4.45;;;;;;;;;;4916820;29;20095;-62
2021/05/26 01:25:51;;;;;;;8.10;4.10;;;;;;;;;;4916412;29;20083;-58
2021/05/26 01:28:17;;;;;;;5.10;3.67;;;;;;;;;;4918673;29;20433;-61
2021/05/26 01:30:43;;;;;;;6.72;4.43;;;;;;;;;;4918886;29;20040;-60
2021/05/26 01:33:09;;;;;;;7.28;4.40;;;;;;;;;;4917901;29;20474;-60
2021/05/26 01:35:38;;;;;;;6.45;4.28;;;;;;;;;;4915270;29;20048;-60
2021/05/26 01:38:04;;;;;;;12.00;4.80;;;;;;;;;;4916525;29;20126;-60
2021/05/26 01:40:29;;;;;;;8.27;5.25;;;;;;;;;;4918038;29;20036;-61
2021/05/26 01:42:55;;;;;;;6.35;4.57;;;;;;;;;;4917874;29;20066;-59
2021/05/26 01:45:21;;;;;;;9.77;4.88;;;;;;;;;;4915714;29;20063;-62
2021/05/26 01:47:50;;;;;;;10.00;4.35;;;;;;;;;;4916187;29;20040;-63
2021/05/26 01:50:20;;;;;;;5.82;4.38;;;;;;;;;;4915523;29;20043;-63
2021/05/26 01:52:47;;;;;;;6.78;4.68;;;;;;;;;;4916521;29;20055;-64
2021/05/26 01:55:13;;;;;;;7.88;4.82;;;;;;;;;;4918851;29;20039;-63
2021/05/26 01:57:42;;;;;;;6.10;4.57;;;;;;;;;;4917329;29;20126;-61
2021/05/26 02:00:08;;;;;;;7.85;4.30;;;;;;;;;;4916745;29;20043;-63
2021/05/26 02:02:34;;;;;;;7.78;4.47;;;;;;;;;;4913117;29;20435;-61
2021/05/26 02:04:59;;;;;;;6.88;4.55;;;;;;;;;;4911650;29;20106;-60
2021/05/26 02:07:25;;;;;;;8.00;4.75;;;;;;;;;;4913056;29;20047;-62
2021/05/26 02:09:51;;;;;;;6.97;5.47;;;;;;;;;;4914846;29;20892;-62
2021/05/26 02:12:23;;;;;;;9.43;6.15;;;;;;;;;;4916267;29;20109;-62
2021/05/26 02:14:55;;;;;;;8.48;5.68;;;;;;;;;;4916357;29;20043;-63
2021/05/26 02:17:25;;;;;;;7.28;5.47;;;;;;;;;;4904002;29;20743;-61
2021/05/26 02:19:51;;;;;;;7.75;5.40;;;;;;;;;;4918221;29;20036;-62
2021/05/26 02:22:17;;;;;;;14.23;6.03;;;;;;;;;;4916636;29;20049;-59
2021/05/26 02:24:44;;;;;;;7.28;5.35;;;;;;;;;;4915703;29;21995;-61
2021/05/26 02:27:10;;;;;;;9.90;5.90;;;;;;;;;;4918505;29;20392;-61
2021/05/26 02:29:36;;;;;;;13.75;6.72;;;;;;;;;;4916466;29;20091;-61
2021/05/26 02:32:02;;;;;;;8.43;6.47;;;;;;;;;;4916910;29;20039;-61
2021/05/26 02:34:28;;;;;;;11.48;6.60;;;;;;;;;;4916306;29;20040;-60
2021/05/26 02:36:54;;;;;;;8.73;6.68;;;;;;;;;;4915992;29;20050;-61
2021/05/26 02:39:21;;;;;;;8.63;7.38;;;;;;;;;;4914464;29;20150;-59
2021/05/26 02:42:36;;;;;;;8.45;7.10;;;;;;;;;;4910081;29;20525;-62
2021/05/26 02:45:03;;;;;;;10.00;7.07;;;;;;;;;;4857435;29;20354;-60
2021/05/26 02:47:28;;;;;;;9.38;7.13;;;;;;;;;;4857944;29;20128;-61
2021/05/26 02:49:54;;;;;;;8.13;6.90;;;;;;;;;;4889839;29;20529;-61
2021/05/26 02:52:20;;;;;;;11.07;7.63;;;;;;;;;;4914621;29;20032;-61
2021/05/26 02:54:46;;;;;;;12.25;7.75;;;;;;;;;;4914241;29;20396;-61
2021/05/26 02:57:12;;;;;;;8.95;7.60;;;;;;;;;;4914073;29;20412;-61
2021/05/26 02:59:38;;;;;;;11.60;8.10;;;;;;;;;;4915017;29;20117;-62
2021/05/26 03:02:03;;;;;;;13.15;8.23;;;;;;;;;;4913418;29;20047;-62
2021/05/26 03:04:29;;;;;;;10.18;8.02;;;;;;;;;;4913126;29;20040;-60
2021/05/26 03:06:55;;;;;;;11.23;8.07;;;;;;;;;;4914852;29;20055;-61
2021/05/26 03:09:21;;;;;;;10.93;8.55;;;;;;;;;;4911514;29;20103;-61
2021/05/26 03:11:47;;;;;;;15.50;8.50;;;;;;;;;;4915168;29;20611;-61
2021/05/26 03:14:13;;;;;;;9.93;8.00;;;;;;;;;;4913491;29;20041;-60
2021/05/26 03:16:38;;;;;;;11.40;8.38;;;;;;;;;;4913944;29;20044;-61
2021/05/26 03:19:04;;;;;;;11.77;8.52;;;;;;;;;;4914387;29;20088;-62
2021/05/26 03:21:30;;;;;;;10.75;8.77;;;;;;;;;;4886668;29;20055;-60
2021/05/26 03:23:56;;;;;;;12.68;8.73;;;;;;;;;;4913652;29;20067;-60
2021/05/26 03:26:22;;;;;;;11.02;9.30;;;;;;;;;;4915429;29;20142;-61
2021/05/26 03:28:48;;;;;;;11.38;9.68;;;;;;;;;;4913300;29;20059;-61
2021/05/26 03:31:14;;;;;;;11.80;9.57;;;;;;;;;;4915030;29;20503;-61
2021/05/26 03:36:43;;;;;;;11.00;9.60;;;;;;;;;;4916735;29;20194;-61
2021/05/26 03:39:12;;;;;;;11.80;9.70;;;;;;;;;;4916350;29;20043;-61
2021/05/26 03:41:39;;;;;;;19.15;9.68;;;;;;;;;;4886726;29;20134;-60
2021/05/26 03:44:05;;;;;;;14.30;9.75;;;;;;;;;;4919427;29;20048;-61
2021/05/26 03:46:31;;;;;;;14.55;9.38;;;;;;;;;;4918286;29;20103;-61
2021/05/26 03:48:57;;;;;;;13.15;10.25;;;;;;;;;;4918723;29;20048;-60
2021/05/26 03:51:23;;;;;;;16.33;10.70;;;;;;;;;;4917856;29;20495;-61
2021/05/26 03:53:49;;;;;;;14.88;9.80;;;;;;;;;;4918812;29;20067;-60
2021/05/26 03:56:14;;;;;;;14.57;10.80;;;;;;;;;;4920466;29;20111;-61
2021/05/26 03:58:40;;;;;;;13.82;10.35;;;;;;;;;;4918946;29;20951;-61
2021/05/26 04:01:06;;;;;;;13.45;9.73;;;;;;;;;;4917846;29;20044;-60
2021/05/26 04:03:32;;;;;;;12.68;9.40;;;;;;;;;;4917343;29;20607;-60
2021/05/26 04:05:58;;;;;;;14.85;9.80;;;;;;;;;;4902085;29;21075;-61
2021/05/26 04:08:23;;;;;;;14.55;9.88;;;;;;;;;;4918105;29;20047;-61
2021/05/26 04:10:58;;;;;;;15.40;9.73;;;;;;;;;;4918443;29;20159;-57
2021/05/26 04:13:24;;;;;;;11.75;10.00;;;;;;;;;;4919173;29;20036;-57
2021/05/26 04:15:50;;;;;;;12.48;9.60;;;;;;;;;;4919288;29;20047;-59
2021/05/26 04:18:16;;;;;;;10.88;9.20;;;;;;;;;;4920218;29;20246;-61
2021/05/26 04:20:42;;;;;;;10.98;9.45;;;;;;;;;;4918131;29;20410;-61
2021/05/26 04:23:08;;;;;;;14.13;9.63;;;;;;;;;;4919370;29;20044;-61
2021/05/26 04:25:34;;;;;;;11.52;9.48;;;;;;;;;;4918895;29;20451;-60
2021/05/26 04:28:00;;;;;;;12.15;9.57;;;;;;;;;;4918167;29;20044;-62
2021/05/26 04:30:26;;;;;;;13.32;9.23;;;;;;;;;;4918372;29;20039;-61
2021/05/26 04:32:52;;;;;;;11.32;9.50;;;;;;;;;;4917189;29;20036;-61
2021/05/26 04:35:18;;;;;;;13.63;10.70;;;;;;;;;;4916597;29;20039;-61
2021/05/26 04:37:44;;;;;;;14.35;10.70;;;;;;;;;;4915128;29;21004;-60
2021/05/26 04:40:10;;;;;;;12.98;10.05;;;;;;;;;;4917226;29;20044;-61
2021/05/26 04:42:36;;;;;;;14.27;10.98;;;;;;;;;;4900603;29;20502;-61
2021/05/26 04:45:02;;;;;;;12.13;10.45;;;;;;;;;;4918323;29;20047;-62
2021/05/26 04:47:27;;;;;;;14.27;10.20;;;;;;;;;;4918954;29;20135;-62
2021/05/26 04:49:53;;;;;;;16.17;10.10;;;;;;;;;;4918319;29;20065;-61
2021/05/26 04:52:19;;;;;;;13.38;9.27;;;;;;;;;;4917905;29;20491;-62
2021/05/26 04:54:45;;;;;;;11.23;8.95;;;;;;;;;;4920451;29;20046;-62
2021/05/26 04:57:11;;;;;;;11.30;8.45;;;;;;;;;;4919848;29;20402;-62
2021/05/26 04:59:36;;;;;;;12.15;9.00;;;;;;;;;;4918331;29;20044;-62
2021/05/26 05:02:02;;;;;;;10.98;8.80;;;;;;;;;;4917475;29;20036;-61
2021/05/26 05:04:28;;;;;;;10.02;8.65;;;;;;;;;;4918238;29;20043;-62
2021/05/26 05:06:56;;;;;;;11.15;8.85;;;;;;;;;;4920078;29;20040;-62
2021/05/26 05:09:22;;;;;;;13.65;9.40;;;;;;;;;;4917556;29;20160;-61
2021/05/26 05:11:48;;;;;;;9.57;8.60;;;;;;;;;;4918512;29;20040;-61
2021/05/26 05:14:13;;;;;;;10.38;9.27;;;;;;;;;;4917075;29;20052;-62
2021/05/26 05:16:39;;;;;;;12.07;8.57;;;;;;;;;;4919096;29;20069;-63
2021/05/26 05:19:05;;;;;;;10.07;8.57;;;;;;;;;;4919868;29;20055;-61
2021/05/26 05:21:31;;;;;;;10.88;8.80;;;;;;;;;;4919338;29;21328;-61
2021/05/26 05:23:57;;;;;;;9.85;8.73;;;;;;;;;;4917259;29;20039;-62
2021/05/26 05:26:23;;;;;;;11.70;8.93;;;;;;;;;;4920494;29;20503;-62
2021/05/26 05:28:49;;;;;;;12.27;9.20;;;;;;;;;;4898070;29;20040;-61
2021/05/26 05:31:15;;;;;;;11.60;9.10;;;;;;;;;;4917930;29;20048;-62
2021/05/26 05:33:40;;;;;;;10.15;9.05;;;;;;;;;;4918153;29;20039;-62
2021/05/26 05:36:06;;;;;;;11.60;8.00;;;;;;;;;;4920057;29;20106;-60
2021/05/26 05:38:32;;;;;;;11.70;8.35;;;;;;;;;;4917012;29;20134;-61
2021/05/26 05:40:58;;;;;;;14.45;8.50;;;;;;;;;;4919540;29;20090;-60
2021/05/26 05:43:24;;;;;;;9.45;8.10;;;;;;;;;;4917729;29;20131;-62
2021/05/26 05:45:50;;;;;;;9.35;7.85;;;;;;;;;;4918559;29;20071;-61
2021/05/26 05:48:22;;;;;;;12.75;7.65;;;;;;;;;;4918756;29;20080;-62
2021/05/26 05:50:47;;;;;;;8.02;6.93;;;;;;;;;;4919123;29;20087;-62
2021/05/26 05:53:13;;;;;;;7.65;6.40;;;;;;;;;;4916917;29;20669;-61
2021/05/26 05:55:39;;;;;;;10.13;6.82;;;;;;;;;;4917305;29;20102;-61
2021/05/26 05:58:05;;;;;;;9.23;6.00;;;;;;;;;;4919010;29;20044;-61
2021/05/26 06:00:35;;;;;;;9.13;5.80;;;;;;;;;;4919218;29;20038;-63
2021/05/26 06:03:01;;;;;;;11.57;5.70;;;;;;;;;;4920072;29;20110;-61
2021/05/26 06:05:26;;;;;;;7.32;5.40;;;;;;;;;;4918642;29;20126;-61
2021/05/26 06:07:52;;;;;;;6.63;4.97;;;;;;;;;;4920103;29;20051;-60
2021/05/26 06:10:18;;;;;;;7.22;4.80;;;;;;;;;;4920085;29;20054;-61
2021/05/26 06:12:44;;;;;;;6.95;4.60;;;;;;;;;;4918627;29;20043;-61
2021/05/26 06:15:10;;;;;;;8.23;5.20;;;;;;;;;;4920360;29;20040;-61
2021/05/26 06:17:36;;;;;;;7.13;4.75;;;;;;;;;;4920208;29;20055;-61
2021/05/26 06:20:02;;;;;;;9.75;5.97;;;;;;;;;;4917358;29;20127;-61
2021/05/26 06:22:28;;;;;;;7.57;5.47;;;;;;;;;;4917927;29;20055;-61
2021/05/26 06:24:54;;;;;;;5.88;4.72;;;;;;;;;;4916702;29;20044;-62
2021/05/26 06:27:20;;;;;;;9.68;4.90;;;;;;;;;;4917978;29;20087;-60
2021/05/26 06:29:46;;;;;;;6.57;4.35;;;;;;;;;;4918625;29;20039;-61
2021/05/26 06:32:12;;;;;;;5.93;4.10;;;;;;;;;;4917834;29;20043;-60
2021/05/26 06:34:37;;;;;;;5.60;3.90;;;;;;;;;;4916282;29;20127;-61
2021/05/26 06:37:04;;;;;;;5.25;3.63;;;;;;;;;;4917886;29;20508;-60
2021/05/26 06:39:30;;;;;;;5.53;3.78;;;;;;;;;;4916246;29;20983;-60
2021/05/26 06:41:56;;;;;;;6.35;3.92;;;;;;;;;;4916054;29;20108;-60
2021/05/26 06:44:21;;;;;;;6.57;3.88;;;;;;;;;;4917044;29;20452;-59
2021/05/26 06:46:47;;;;;;;6.75;3.97;;;;;;;;;;4918869;29;20135;-62
2021/05/26 06:49:13;;;;;;;6.80;3.63;;;;;;;;;;4917743;29;20051;-61
2021/05/26 06:51:39;;;;;;;7.18;3.67;;;;;;;;;;4917603;29;20498;-60
2021/05/26 06:54:05;;;;;;;5.30;3.03;;;;;;;;;;4917016;29;20051;-59
2021/05/26 06:56:30;;;;;;;4.82;3.17;;;;;;;;;;4917747;29;20537;-60
2021/05/26 06:58:56;;;;;;;4.32;2.70;;;;;;;;;;4916894;29;20040;-60
2021/05/26 07:01:24;;;;;;;6.63;2.90;;;;;;;;;;4916859;29;20561;-60
2021/05/26 07:03:50;;;;;;;4.88;2.50;;;;;;;;;;4917001;29;20055;-60
2021/05/26 07:06:15;;;;;;;4.13;2.17;;;;;;;;;;4917801;29;20135;-60
2021/05/26 07:08:41;;;;;;;3.75;2.33;;;;;;;;;;4915757;29;20059;-60
2021/05/26 07:11:07;;;;;;;4.60;2.50;;;;;;;;;;4915795;29;20048;-60
2021/05/26 07:13:33;;;;;;;4.57;2.00;;;;;;;;;;4917272;29;20115;-60
2021/05/26 07:15:59;;;;;;;6.18;2.10;;;;;;;;;;4916496;29;20032;-60
2021/05/26 07:18:27;;;;;;;5.32;2.08;;;;;;;;;;4917680;29;20487;-61
2021/05/26 07:20:53;;;;;;;5.57;1.80;;;;;;;;;;4917671;29;20711;-61
2021/05/26 07:23:19;;;;;;;6.05;1.90;;;;;;;;;;4914047;29;20063;-60
2021/05/26 07:25:45;;;;;;;3.80;2.05;;;;;;;;;;4917301;29;20174;-61
2021/05/26 07:28:12;;;;;;;4.70;1.95;;;;;;;;;;4918610;29;20043;-60
2021/05/26 07:30:38;;;;;;;4.18;2.10;;;;;;;;;;4915751;29;20044;-61
2021/05/26 07:33:04;;;;;;;4.22;2.10;;;;;;;;;;4915186;29;20059;-61
2021/05/26 07:35:30;;;;;;;4.30;2.03;;;;;;;;;;4916188;29;20067;-60
2021/05/26 07:37:55;;;;;;;7.22;2.30;;;;;;;;;;4917737;29;20036;-61
2021/05/26 07:40:21;;;;;;;4.32;2.20;;;;;;;;;;4916253;29;20043;-61
2021/05/26 07:42:47;;;;;;;4.38;2.40;;;;;;;;;;4916212;29;20050;-60
2021/05/26 07:45:13;;;;;;;6.55;2.60;;;;;;;;;;4917660;29;20226;-61
2021/05/26 07:47:39;;;;;;;5.13;2.65;;;;;;;;;;4916511;29;20056;-59
2021/05/26 07:50:05;;;;;;;5.82;3.05;;;;;;;;;;4917259;29;20098;-60
2021/05/26 07:52:31;;;;;;;5.55;2.70;;;;;;;;;;4915683;29;20767;-60
2021/05/26 07:54:58;;;;;;;5.45;2.60;;;;;;;;;;4917113;29;20087;-61
2021/05/26 07:57:24;;;;;;;4.47;2.85;;;;;;;;;;4915936;29;20561;-59
2021/05/26 07:59:50;;;;;;;7.53;3.22;;;;;;;;;;4915949;29;20044;-61
2021/05/26 08:02:16;;;;;;;6.03;2.92;;;;;;;;;;4917302;29;20610;-60
2021/05/26 08:04:42;;;;;;;7.70;4.03;;;;;;;;;;4915911;29;20044;-60
2021/05/26 08:07:10;;;;;;;4.57;2.92;;;;;;;;;;4917206;29;20059;-60
2021/05/26 08:09:37;;;;;;;7.25;3.13;;;;;;;;;;4914806;29;20055;-61
2021/05/26 08:12:03;;;;;;;4.78;3.20;;;;;;;;;;4917446;29;20823;-60
2021/05/26 08:14:31;;;;;;;6.97;3.40;;;;;;;;;;4914991;29;20056;-61
2021/05/26 08:16:59;;;;;;;5.85;3.63;;;;;;;;;;4914772;29;20074;-61
2021/05/26 08:19:25;;;;;;;5.38;3.05;;;;;;;;;;4916049;29;20040;-61
2021/05/26 08:21:50;;;;;;;5.60;3.28;;;;;;;;;;4919747;29;20111;-61
2021/05/26 08:24:16;;;;;;;10.70;3.60;;;;;;;;;;4919835;29;20603;-60
2021/05/26 08:26:42;;;;;;;7.40;3.40;;;;;;;;;;4919635;29;20055;-59
2021/05/26 08:29:08;;;;;;;5.03;3.38;;;;;;;;;;4920173;29;20102;-61
2021/05/26 08:31:34;;;;;;;6.35;3.70;;;;;;;;;;4916812;29;20048;-60
2021/05/26 08:34:00;;;;;;;5.30;3.25;;;;;;;;;;4919581;29;20155;-61
2021/05/26 08:36:26;;;;;;;5.38;3.08;;;;;;;;;;4918906;29;20054;-60
2021/05/26 08:38:52;;;;;;;5.32;3.78;;;;;;;;;;4919387;29;20211;-61
2021/05/26 08:41:21;;;;;;;5.95;3.75;;;;;;;;;;4917584;29;20043;-61
2021/05/26 08:43:47;;;;;;;5.50;3.65;;;;;;;;;;4919655;29;20403;-61
2021/05/26 08:46:13;;;;;;;7.47;3.72;;;;;;;;;;4919967;29;20051;-61
2021/05/26 08:48:39;;;;;;;7.68;4.00;;;;;;;;;;4917814;29;20518;-60
2021/05/26 08:51:06;;;;;;;5.68;4.22;;;;;;;;;;4917351;29;20076;-60
2021/05/26 08:53:33;;;;;;;7.60;4.07;;;;;;;;;;4918415;29;20036;-60
2021/05/26 08:55:59;;;;;;;6.28;4.22;;;;;;;;;;4918162;29;20051;-60
2021/05/26 08:58:25;;;;;;;6.43;4.47;;;;;;;;;;4918319;29;20058;-59
2021/05/26 09:00:50;;;;;;;7.50;4.20;;;;;;;;;;4918532;29;20078;-60
2021/05/26 09:03:16;;;;;;;6.80;4.18;;;;;;;;;;4920258;29;20036;-60
2021/05/26 09:05:42;;;;;;;7.80;4.47;;;;;;;;;;4918959;29;20159;-61
2021/05/26 09:08:11;;;;;;;7.63;4.32;;;;;;;;;;4921449;29;20058;-61
2021/05/26 09:10:57;;;;;;;8.05;4.60;;;;;;;;;;4918676;29;20455;-61
2021/05/26 09:13:29;;;;;;;8.32;5.07;;;;;;;;;;4916838;29;20423;-60
2021/05/26 09:15:55;;;;;;;6.13;4.43;;;;;;;;;;4918578;29;20032;-61
2021/05/26 09:18:20;;;;;;;6.80;3.95;;;;;;;;;;4916428;29;20052;-61
2021/05/26 09:20:47;;;;;;;6.70;4.40;;;;;;;;;;4918119;29;20048;-61
2021/05/26 09:23:16;;;;;;;7.50;4.60;;;;;;;;;;4918248;29;20063;-61
2021/05/26 09:25:46;;;;;;;7.47;4.68;;;;;;;;;;4916480;29;20060;-61
2021/05/26 09:28:28;;;;;;;6.60;4.85;;;;;;;;;;4917957;29;20032;-61
2021/05/26 09:30:58;;;;;;;6.53;4.90;;;;;;;;;;4916098;29;21426;-60
2021/05/26 09:33:41;;;;;;;8.65;5.15;;;;;;;;;;4916176;29;20578;-60
2021/05/26 09:36:16;;;;;;;8.50;5.32;;;;;;;;;;4917682;29;20701;-59
2021/05/26 09:38:43;;;;;;;8.65;5.88;;;;;;;;;;4915378;29;20046;-60
2021/05/26 09:41:12;;;;;;;8.35;6.10;;;;;;;;;;4912425;29;20126;-61
2021/05/26 09:43:41;;;;;;;9.65;6.15;;;;;;;;;;4916639;29;20115;-61
2021/05/26 09:46:22;;;;;;;8.88;6.43;;;;;;;;;;4917380;29;20253;-62
2021/05/26 09:49:07;;;;;;;10.13;7.00;;;;;;;;;;4915745;29;20044;-61
2021/05/26 09:51:35;;;;;;;9.48;7.25;;;;;;;;;;4916506;29;20036;-61
2021/05/26 09:54:10;;;;;;;9.60;7.88;;;;;;;;;;4916581;29;20092;-60
2021/05/26 09:56:36;;;;;;;9.73;8.23;;;;;;;;;;4917693;29;20047;-60
2021/05/26 09:59:03;;;;;;;12.27;9.18;;;;;;;;;;4917617;29;20071;-61
2021/05/26 10:01:30;;;;;;;13.07;9.02;;;;;;;;;;4917709;29;20091;-60
2021/05/26 10:03:56;;;;;;;12.50;10.13;;;;;;;;;;4916438;29;20044;-60
2021/05/26 10:06:27;;;;;;;15.25;11.52;;;;;;;;;;4915679;29;20058;-60
2021/05/26 10:08:55;;;;;;;14.30;11.35;;;;;;;;;;4916831;29;20148;-60
2021/05/26 10:11:20;;;;;;;16.17;12.90;;;;;;;;;;4915296;29;20039;-61
2021/05/26 10:13:47;;;;;;;15.48;12.45;;;;;;;;;;4917035;29;20976;-61
2021/05/26 10:16:19;;;;;;;14.25;11.73;;;;;;;;;;4916706;29;20094;-60
2021/05/26 10:18:49;;;;;;;17.63;14.00;;;;;;;;;;4914858;29;20063;-60
2021/05/26 10:21:15;;;;;;;18.92;13.07;;;;;;;;;;4918356;29;20044;-60
2021/05/26 10:23:42;;;;;;;17.70;13.45;;;;;;;;;;4915907;29;20047;-60
2021/05/26 10:26:07;;;;;;;19.65;13.90;;;;;;;;;;4914900;29;20148;-60
2021/05/26 10:28:33;;;;;;;16.58;13.95;;;;;;;;;;4915755;29;20040;-60
2021/05/26 10:31:04;;;;;;;18.08;14.55;;;;;;;;;;4915905;29;20500;-60
2021/05/26 10:33:42;;;;;;;16.88;13.57;;;;;;;;;;4916874;29;20738;-61
2021/05/26 10:36:10;;;;;;;19.10;15.35;;;;;;;;;;4915402;29;20454;-58
2021/05/26 10:38:54;;;;;;;17.05;14.70;;;;;;;;;;4916142;29;20036;-61
2021/05/26 10:41:20;;;;;;;20.55;15.57;;;;;;;;;;4912689;29;20107;-61
2021/05/26 10:43:56;;;;;;;18.95;16.15;;;;;;;;;;4915120;29;20048;-61
2021/05/26 10:46:39;;;;;;;21.23;15.65;;;;;;;;;;4916804;29;20142;-61
2021/05/26 10:49:06;;;;;;;19.20;15.23;;;;;;;;;;4915386;29;20399;-61
2021/05/26 10:51:50;;;;;;;23.10;16.85;;;;;;;;;;4910974;29;20086;-61
2021/05/26 10:54:35;;;;;;;19.83;16.27;;;;;;;;;;4915231;29;20051;-60
2021/05/26 10:57:00;;;;;;;20.60;16.80;;;;;;;;;;4910635;29;20690;-60
2021/05/26 10:59:26;;;;;;;19.83;16.67;;;;;;;;;;4915110;29;20056;-60
2021/05/26 11:02:10;;;;;;;24.08;16.75;;;;;;;;;;4915687;29;20039;-61
2021/05/26 11:04:40;;;;;;;22.20;17.50;;;;;;;;;;4916312;29;20094;-61
2021/05/26 11:07:15;;;;;;;24.33;18.67;;;;;;;;;;4915881;29;20348;-61
2021/05/26 11:09:56;;;;;;;20.35;16.88;;;;;;;;;;4914812;29;20531;-61
2021/05/26 11:12:23;;;;;;;21.38;17.42;;;;;;;;;;4915801;29;20079;-61
2021/05/26 11:14:53;;;;;;;24.58;20.20;;;;;;;;;;4914648;29;20027;-60
2021/05/26 11:17:22;;;;;;;22.52;18.80;;;;;;;;;;4914950;29;20534;-61
2021/05/26 11:19:48;;;;;;;26.45;18.58;;;;;;;;;;4917368;29;20044;-60
2021/05/26 11:22:15;;;;;;;23.48;18.33;;;;;;;;;;4914416;29;20483;-60
2021/05/26 11:24:45;;;;;;;23.00;18.85;;;;;;;;;;4914787;29;20406;-61
2021/05/26 11:27:15;;;;;;;25.75;19.42;;;;;;;;;;4915676;29;20040;-60
2021/05/26 11:29:41;;;;;;;23.83;19.60;;;;;;;;;;4915232;29;20040;-60
2021/05/26 11:32:11;;;;;;;26.38;19.95;;;;;;;;;;4915495;29;20051;-60
2021/05/26 11:34:38;;;;;;;29.85;20.02;;;;;;;;;;4898229;29;20047;-61
2021/05/26 11:37:05;;;;;;;25.27;19.63;;;;;;;;;;4916175;29;20048;-60
2021/05/26 11:39:32;;;;;;;26.75;20.23;;;;;;;;;;4915191;29;20522;-61
2021/05/26 11:42:19;;;;;;;28.45;20.70;;;;;;;;;;4916303;29;20550;-61
2021/05/26 11:44:52;;;;;;;23.45;17.58;;;;;;;;;;4915389;29;20119;-59
2021/05/26 11:47:40;;;;;;;29.40;20.67;;;;;;;;;;4914896;29;20063;-60
2021/05/26 11:50:12;;;;;;;28.33;21.25;;;;;;;;;;4913815;29;20124;-59
2021/05/26 11:52:37;;;;;;;25.80;19.17;;;;;;;;;;4914168;29;20044;-60
2021/05/26 11:55:03;;;;;;;29.80;21.10;;;;;;;;;;4918335;29;20483;-62
2021/05/26 11:57:32;;;;;;;28.25;20.58;;;;;;;;;;4919223;29;20154;-62
2021/05/26 11:59:59;;;;;;;29.10;20.23;;;;;;;;;;4920033;29;20058;-62
2021/05/26 12:02:25;;;;;;;36.88;22.17;;;;;;;;;;4916629;29;20036;-62
2021/05/26 12:04:51;;;;;;;33.58;23.27;;;;;;;;;;4918631;29;20130;-60
2021/05/26 12:07:24;;;;;;;28.17;20.73;;;;;;;;;;4919618;29;20128;-62
2021/05/26 12:09:53;;;;;;;26.65;20.52;;;;;;;;;;4915843;29;20043;-62
2021/05/26 12:12:19;;;;;;;26.20;20.85;;;;;;;;;;4917353;29;20073;-63
2021/05/26 12:14:47;;;;;;;28.00;19.90;;;;;;;;;;4916456;29;20065;-62
2021/05/26 12:17:14;;;;;;;25.67;19.33;;;;;;;;;;4917382;29;20039;-61
2021/05/26 12:19:40;;;;;;;29.77;21.30;;;;;;;;;;4916196;29;20055;-62
2021/05/26 12:22:26;;;;;;;29.70;19.40;;;;;;;;;;4919325;29;20094;-60
2021/05/26 12:25:03;;;;;;;27.05;19.15;;;;;;;;;;4915955;29;20443;-60
2021/05/26 12:27:41;;;;;;;26.73;18.35;;;;;;;;;;4917711;29;20051;-62
2021/05/26 12:30:13;;;;;;;25.50;19.15;;;;;;;;;;4919337;29;20040;-61
2021/05/26 12:32:39;;;;;;;25.38;18.92;;;;;;;;;;4915519;29;20127;-61
2021/05/26 12:35:15;;;;;;;25.30;19.50;;;;;;;;;;4918161;29;20138;-64
2021/05/26 12:37:42;;;;;;;31.95;19.35;;;;;;;;;;4899175;29;20156;-62
2021/05/26 12:40:08;;;;;;;29.65;19.10;;;;;;;;;;4917960;29;20051;-61
2021/05/26 12:42:35;;;;;;;29.42;18.88;;;;;;;;;;4917280;29;20814;-62
2021/05/26 12:45:17;;;;;;;30.67;20.23;;;;;;;;;;4916973;29;20048;-60
2021/05/26 12:47:43;;;;;;;23.85;18.38;;;;;;;;;;4908269;29;20407;-59
2021/05/26 12:50:10;;;;;;;33.65;17.33;;;;;;;;;;4916336;29;20036;-60
2021/05/26 12:52:36;;;;;;;29.90;17.35;;;;;;;;;;4896453;29;20044;-59
2021/05/26 12:55:11;;;;;;;25.23;17.80;;;;;;;;;;4915526;29;20055;-62
2021/05/26 12:57:41;;;;;;;27.25;17.58;;;;;;;;;;4916397;29;20082;-62
2021/05/26 13:00:09;;;;;;;33.58;16.88;;;;;;;;;;4914774;29;20075;-62
2021/05/26 13:02:40;;;;;;;34.95;16.20;;;;;;;;;;4915538;29;20787;-62
2021/05/26 13:05:08;;;;;;;29.70;17.00;;;;;;;;;;4914439;29;20535;-60
2021/05/26 13:07:39;;;;;;;35.45;17.63;;;;;;;;;;4912322;29;20047;-60
2021/05/26 13:10:25;;;;;;;32.25;16.80;;;;;;;;;;4917063;29;20047;-60
2021/05/26 13:12:52;;;;;;;27.98;17.40;;;;;;;;;;4916312;29;20043;-61
2021/05/26 13:15:24;;;;;;;37.42;18.38;;;;;;;;;;4915486;29;22149;-61
2021/05/26 13:17:50;;;;;;;42.00;17.83;;;;;;;;;;4915906;29;20040;-61
2021/05/26 13:20:18;;;;;;;29.35;18.45;;;;;;;;;;4915626;29;20079;-62
2021/05/26 13:22:44;;;;;;;30.02;18.05;;;;;;;;;;4907201;29;20066;-62
2021/05/26 13:25:10;;;;;;;41.45;20.33;;;;;;;;;;4917984;29;20513;-62
2021/05/26 13:27:40;;;;;;;38.28;17.60;;;;;;;;;;4916276;29;20035;-62
2021/05/26 13:30:05;;;;;;;48.60;17.45;;;;;;;;;;4917793;29;20140;-62
2021/05/26 13:32:31;;;;;;;96.70;18.25;;;;;;;;;;4914856;29;20039;-61
2021/05/26 13:34:57;;;;;;;88.85;17.98;;;;;;;;;;4915826;29;20063;-61
2021/05/26 13:37:23;;;;;;;112.65;19.73;;;;;;;;;;4914107;29;20083;-62
2021/05/26 13:39:49;;;;;;;65.25;18.58;;;;;;;;;;4914965;29;20118;-62
2021/05/26 13:42:14;;;;;;;49.53;18.75;;;;;;;;;;4913635;29;20032;-60
2021/05/26 13:44:40;;;;;;;86.25;18.25;;;;;;;;;;4913729;29;20044;-62
2021/05/26 13:47:06;;;;;;;122.18;20.10;;;;;;;;;;4912841;29;20661;-62
2021/05/26 13:49:32;;;;;;;78.60;18.67;;;;;;;;;;4903465;29;20051;-61
2021/05/26 13:51:58;;;;;;;63.65;19.40;;;;;;;;;;4900061;29;21035;-61
2021/05/26 13:54:25;;;;;;;64.65;18.15;;;;;;;;;;4904507;29;20044;-61
2021/05/26 13:56:51;;;;;;;49.78;17.70;;;;;;;;;;4905831;29;20101;-61
2021/05/26 13:59:16;;;;;;;54.38;18.65;;;;;;;;;;4906553;29;20039;-61
2021/05/26 14:01:42;;;;;;;53.30;16.88;;;;;;;;;;4903382;29;20467;-58
2021/05/26 14:04:08;;;;;;;76.10;18.85;;;;;;;;;;4905848;29;20631;-60
2021/05/26 14:06:34;;;;;;;45.33;17.85;;;;;;;;;;4906263;29;20052;-61
2021/05/26 14:09:00;;;;;;;45.88;17.08;;;;;;;;;;4905586;29;20048;-61
2021/05/26 14:11:25;;;;;;;45.90;15.77;;;;;;;;;;4905252;29;20697;-61
2021/05/26 14:13:53;;;;;;;37.80;16.42;;;;;;;;;;4906277;29;20414;-61
2021/05/26 14:16:18;;;;;;;44.65;17.55;;;;;;;;;;4903973;29;20094;-61
2021/05/26 14:18:44;;;;;;;27.75;16.52;;;;;;;;;;4905900;29;20039;-61
2021/05/26 14:21:10;;;;;;;31.00;16.67;;;;;;;;;;4905392;29;20048;-61
2021/05/26 14:23:39;;;;;;;20.42;13.88;;;;;;;;;;4905489;29;20165;-61
2021/05/26 14:26:05;;;;;;;16.85;13.25;;;;;;;;;;4906579;29;20071;-61
2021/05/26 14:28:30;;;;;;;16.88;12.73;;;;;;;;;;4905209;29;20062;-61
2021/05/26 14:30:56;;;;;;;19.42;13.60;;;;;;;;;;4906126;29;20336;-60
2021/05/26 14:33:23;;;;;;;20.23;12.50;;;;;;;;;;4904322;29;20051;-61
2021/05/26 14:35:50;;;;;;;49.03;13.57;;;;;;;;;;4904628;29;20671;-61
2021/05/26 14:40:57;;;;;;;15.63;12.63;;;;;;;;;;4898569;29;20127;-60